sensor_id;sensor_type;location;lat;lon;timestamp;temperature;humidity
1415;DHT22;702;49.466;11.086;2023-01-08T00:00:12;4.10;99.90
1415;DHT22;702;49.466;11.086;2023-01-08T00:02:39;4.10;99.20
1415;DHT22;702;49.466;11.086;2023-01-08T00:05:07;4.10;99.90
1415;DHT22;702;49.466;11.086;2023-01-08T00:07:37;4.10;99.60
1415;DHT22;702;49.466;11.086;2023-01-08T00:10:05;4.10;99.70
1415;DHT22;702;49.466;11.086;2023-01-08T00:12:32;4.10;99.90
1415;DHT22;702;49.466;11.086;2023-01-08T00:15:02;4.10;99.30
1415;DHT22;702;49.466;11.086;2023-01-08T00:17:29;4.10;99.40
1415;DHT22;702;49.466;11.086;2023-01-08T00:19:59;4.10;99.60
1415;DHT22;702;49.466;11.086;2023-01-08T00:22:27;4.00;99.90
1415;DHT22;702;49.466;11.086;2023-01-08T00:24:55;4.10;99.80
1415;DHT22;702;49.466;11.086;2023-01-08T00:27:25;4.10;99.80
1415;DHT22;702;49.466;11.086;2023-01-08T00:29:53;4.10;99.80
1415;DHT22;702;49.466;11.086;2023-01-08T00:32:21;4.10;99.30
1415;DHT22;702;49.466;11.086;2023-01-08T00:34:48;4.10;99.00
1415;DHT22;702;49.466;11.086;2023-01-08T00:37:16;4.00;99.30
1415;DHT22;702;49.466;11.086;2023-01-08T00:39:44;4.00;99.60
1415;DHT22;702;49.466;11.086;2023-01-08T00:42:11;4.00;99.80
1415;DHT22;702;49.466;11.086;2023-01-08T00:44:39;4.00;99.90
1415;DHT22;702;49.466;11.086;2023-01-08T00:47:06;4.00;99.70
1415;DHT22;702;49.466;11.086;2023-01-08T00:49:35;4.00;99.80
1415;DHT22;702;49.466;11.086;2023-01-08T00:52:03;4.00;99.40
1415;DHT22;702;49.466;11.086;2023-01-08T00:54:30;4.00;99.40
1415;DHT22;702;49.466;11.086;2023-01-08T00:56:58;3.90;99.50
1415;DHT22;702;49.466;11.086;2023-01-08T00:59:25;3.80;99.90
1415;DHT22;702;49.466;11.086;2023-01-08T01:01:53;3.80;99.90
1415;DHT22;702;49.466;11.086;2023-01-08T01:04:20;3.90;99.90
1415;DHT22;702;49.466;11.086;2023-01-08T01:06:49;3.90;99.90
1415;DHT22;702;49.466;11.086;2023-01-08T01:09:17;3.80;99.10
1415;DHT22;702;49.466;11.086;2023-01-08T01:11:44;3.80;99.10
1415;DHT22;702;49.466;11.086;2023-01-08T01:14:11;3.70;99.40
1415;DHT22;702;49.466;11.086;2023-01-08T01:16:39;3.70;99.90
1415;DHT22;702;49.466;11.086;2023-01-08T01:19:07;3.60;99.70
1415;DHT22;702;49.466;11.086;2023-01-08T01:21:35;3.60;99.90
1415;DHT22;702;49.466;11.086;2023-01-08T01:24:06;3.60;99.90
1415;DHT22;702;49.466;11.086;2023-01-08T01:26:34;3.50;99.90
1415;DHT22;702;49.466;11.086;2023-01-08T01:29:04;3.50;99.90
1415;DHT22;702;49.466;11.086;2023-01-08T01:31:32;3.50;99.90
1415;DHT22;702;49.466;11.086;2023-01-08T01:34:00;3.50;99.90
1415;DHT22;702;49.466;11.086;2023-01-08T01:36:28;3.50;99.90
1415;DHT22;702;49.466;11.086;2023-01-08T01:38:56;3.50;99.90
1415;DHT22;702;49.466;11.086;2023-01-08T01:41:28;3.50;99.90
1415;DHT22;702;49.466;11.086;2023-01-08T01:43:58;3.50;99.90
1415;DHT22;702;49.466;11.086;2023-01-08T01:46:34;3.50;99.90
1415;DHT22;702;49.466;11.086;2023-01-08T01:49:07;3.50;99.90
1415;DHT22;702;49.466;11.086;2023-01-08T01:51:38;3.50;99.90
1415;DHT22;702;49.466;11.086;2023-01-08T01:54:10;3.50;99.90
1415;DHT22;702;49.466;11.086;2023-01-08T01:56:41;3.50;99.90
1415;DHT22;702;49.466;11.086;2023-01-08T01:59:09;3.50;99.90
1415;DHT22;702;49.466;11.086;2023-01-08T02:01:37;3.50;99.90
1415;DHT22;702;49.466;11.086;2023-01-08T02:04:08;3.50;99.90
1415;DHT22;702;49.466;11.086;2023-01-08T02:06:37;3.60;99.90
1415;DHT22;702;49.466;11.086;2023-01-08T02:09:16;3.60;99.90
1415;DHT22;702;49.466;11.086;2023-01-08T02:11:52;3.50;99.90
1415;DHT22;702;49.466;11.086;2023-01-08T02:14:39;3.50;99.90
1415;DHT22;702;49.466;11.086;2023-01-08T02:17:11;3.60;99.90
1415;DHT22;702;49.466;11.086;2023-01-08T02:19:46;3.60;99.90
1415;DHT22;702;49.466;11.086;2023-01-08T02:22:27;3.50;99.90
1415;DHT22;702;49.466;11.086;2023-01-08T02:25:06;3.60;99.90
1415;DHT22;702;49.466;11.086;2023-01-08T02:27:41;3.60;99.90
1415;DHT22;702;49.466;11.086;2023-01-08T02:30:10;3.60;99.90
1415;DHT22;702;49.466;11.086;2023-01-08T02:32:39;3.50;99.90
1415;DHT22;702;49.466;11.086;2023-01-08T02:35:09;3.60;99.90
1415;DHT22;702;49.466;11.086;2023-01-08T02:37:37;3.60;99.90
1415;DHT22;702;49.466;11.086;2023-01-08T02:40:12;3.60;99.90
1415;DHT22;702;49.466;11.086;2023-01-08T02:42:51;3.60;99.90
1415;DHT22;702;49.466;11.086;2023-01-08T02:45:30;3.50;99.90
1415;DHT22;702;49.466;11.086;2023-01-08T02:48:08;3.60;99.90
1415;DHT22;702;49.466;11.086;2023-01-08T02:50:40;3.60;99.90
1415;DHT22;702;49.466;11.086;2023-01-08T02:53:12;3.60;99.90
1415;DHT22;702;49.466;11.086;2023-01-08T02:55:44;3.60;99.90
1415;DHT22;702;49.466;11.086;2023-01-08T02:58:16;3.60;99.90
1415;DHT22;702;49.466;11.086;2023-01-08T03:00:44;3.50;99.90
1415;DHT22;702;49.466;11.086;2023-01-08T03:03:15;3.50;99.90
1415;DHT22;702;49.466;11.086;2023-01-08T03:05:47;3.50;99.90
1415;DHT22;702;49.466;11.086;2023-01-08T03:08:17;3.50;99.90
1415;DHT22;702;49.466;11.086;2023-01-08T03:10:50;3.50;99.90
1415;DHT22;702;49.466;11.086;2023-01-08T03:13:23;3.50;99.90
1415;DHT22;702;49.466;11.086;2023-01-08T03:15:56;3.50;99.90
1415;DHT22;702;49.466;11.086;2023-01-08T03:18:28;3.50;99.90
1415;DHT22;702;49.466;11.086;2023-01-08T03:21:01;3.50;99.90
1415;DHT22;702;49.466;11.086;2023-01-08T03:23:31;3.60;99.90
1415;DHT22;702;49.466;11.086;2023-01-08T03:26:00;3.60;99.90
1415;DHT22;702;49.466;11.086;2023-01-08T03:28:34;3.60;99.90
1415;DHT22;702;49.466;11.086;2023-01-08T03:31:04;3.60;99.90
1415;DHT22;702;49.466;11.086;2023-01-08T03:33:32;3.60;99.90
1415;DHT22;702;49.466;11.086;2023-01-08T03:36:04;3.60;99.90
1415;DHT22;702;49.466;11.086;2023-01-08T03:38:35;3.60;99.90
1415;DHT22;702;49.466;11.086;2023-01-08T03:41:05;3.60;99.90
1415;DHT22;702;49.466;11.086;2023-01-08T03:43:37;3.60;99.90
1415;DHT22;702;49.466;11.086;2023-01-08T03:46:08;3.60;99.90
1415;DHT22;702;49.466;11.086;2023-01-08T03:48:40;3.60;99.90
1415;DHT22;702;49.466;11.086;2023-01-08T03:51:08;3.60;99.90
1415;DHT22;702;49.466;11.086;2023-01-08T03:53:36;3.60;99.90
1415;DHT22;702;49.466;11.086;2023-01-08T03:56:04;3.60;99.50
1415;DHT22;702;49.466;11.086;2023-01-08T03:58:32;3.60;99.60
1415;DHT22;702;49.466;11.086;2023-01-08T04:01:01;3.70;99.00
1415;DHT22;702;49.466;11.086;2023-01-08T04:03:28;3.70;99.00
1415;DHT22;702;49.466;11.086;2023-01-08T04:05:58;3.70;98.60
1415;DHT22;702;49.466;11.086;2023-01-08T04:08:25;3.70;98.60
1415;DHT22;702;49.466;11.086;2023-01-08T04:10:53;3.70;98.50
1415;DHT22;702;49.466;11.086;2023-01-08T04:13:21;3.80;98.40
1415;DHT22;702;49.466;11.086;2023-01-08T04:15:48;3.80;97.60
1415;DHT22;702;49.466;11.086;2023-01-08T04:18:18;3.90;97.30
1415;DHT22;702;49.466;11.086;2023-01-08T04:20:45;3.90;97.00
1415;DHT22;702;49.466;11.086;2023-01-08T04:23:14;4.00;96.70
1415;DHT22;702;49.466;11.086;2023-01-08T04:25:42;4.00;96.30
1415;DHT22;702;49.466;11.086;2023-01-08T04:28:09;4.00;96.20
1415;DHT22;702;49.466;11.086;2023-01-08T04:30:36;4.00;96.30
1415;DHT22;702;49.466;11.086;2023-01-08T04:33:04;4.00;96.20
1415;DHT22;702;49.466;11.086;2023-01-08T04:35:33;4.00;95.80
1415;DHT22;702;49.466;11.086;2023-01-08T04:38:00;4.00;96.20
1415;DHT22;702;49.466;11.086;2023-01-08T04:40:28;3.90;96.10
1415;DHT22;702;49.466;11.086;2023-01-08T04:42:55;3.90;96.40
1415;DHT22;702;49.466;11.086;2023-01-08T04:45:22;3.90;96.00
1415;DHT22;702;49.466;11.086;2023-01-08T04:47:54;3.90;96.30
1415;DHT22;702;49.466;11.086;2023-01-08T04:50:22;3.90;96.80
1415;DHT22;702;49.466;11.086;2023-01-08T04:52:51;3.90;96.60
1415;DHT22;702;49.466;11.086;2023-01-08T04:55:19;4.00;96.30
1415;DHT22;702;49.466;11.086;2023-01-08T04:57:46;4.00;95.90
1415;DHT22;702;49.466;11.086;2023-01-08T05:00:15;4.00;95.90
1415;DHT22;702;49.466;11.086;2023-01-08T05:02:42;4.00;96.20
1415;DHT22;702;49.466;11.086;2023-01-08T05:05:10;4.00;95.50
1415;DHT22;702;49.466;11.086;2023-01-08T05:07:38;4.10;95.70
1415;DHT22;702;49.466;11.086;2023-01-08T05:10:08;4.10;95.20
1415;DHT22;702;49.466;11.086;2023-01-08T05:12:36;4.20;94.70
1415;DHT22;702;49.466;11.086;2023-01-08T05:15:04;4.20;94.50
1415;DHT22;702;49.466;11.086;2023-01-08T05:17:32;4.20;94.40
1415;DHT22;702;49.466;11.086;2023-01-08T05:19:59;4.20;94.40
1415;DHT22;702;49.466;11.086;2023-01-08T05:22:27;4.20;94.40
1415;DHT22;702;49.466;11.086;2023-01-08T05:24:54;4.10;94.60
1415;DHT22;702;49.466;11.086;2023-01-08T05:27:23;4.10;94.60
1415;DHT22;702;49.466;11.086;2023-01-08T05:29:50;4.10;94.60
1415;DHT22;702;49.466;11.086;2023-01-08T05:32:18;4.10;94.70
1415;DHT22;702;49.466;11.086;2023-01-08T05:34:45;4.10;94.90
1415;DHT22;702;49.466;11.086;2023-01-08T05:37:13;4.10;94.90
1415;DHT22;702;49.466;11.086;2023-01-08T05:39:41;4.10;95.10
1415;DHT22;702;49.466;11.086;2023-01-08T05:42:08;4.10;94.80
1415;DHT22;702;49.466;11.086;2023-01-08T05:44:37;4.10;94.80
1415;DHT22;702;49.466;11.086;2023-01-08T05:47:05;4.10;95.00
1415;DHT22;702;49.466;11.086;2023-01-08T05:49:32;4.10;94.70
1415;DHT22;702;49.466;11.086;2023-01-08T05:51:59;4.10;94.80
1415;DHT22;702;49.466;11.086;2023-01-08T05:54:27;4.10;94.60
1415;DHT22;702;49.466;11.086;2023-01-08T05:56:54;4.10;94.80
1415;DHT22;702;49.466;11.086;2023-01-08T05:59:22;4.10;94.30
1415;DHT22;702;49.466;11.086;2023-01-08T06:01:50;4.20;94.20
1415;DHT22;702;49.466;11.086;2023-01-08T06:04:18;4.20;94.40
1415;DHT22;702;49.466;11.086;2023-01-08T06:06:45;4.20;93.80
1415;DHT22;702;49.466;11.086;2023-01-08T06:09:13;4.20;93.70
1415;DHT22;702;49.466;11.086;2023-01-08T06:11:40;4.20;93.60
1415;DHT22;702;49.466;11.086;2023-01-08T06:14:07;4.20;93.70
1415;DHT22;702;49.466;11.086;2023-01-08T06:16:35;4.20;93.70
1415;DHT22;702;49.466;11.086;2023-01-08T06:19:03;4.20;93.60
1415;DHT22;702;49.466;11.086;2023-01-08T06:21:31;4.20;93.40
1415;DHT22;702;49.466;11.086;2023-01-08T06:23:58;4.20;93.40
1415;DHT22;702;49.466;11.086;2023-01-08T06:26:25;4.20;93.20
1415;DHT22;702;49.466;11.086;2023-01-08T06:28:52;4.20;93.50
1415;DHT22;702;49.466;11.086;2023-01-08T06:31:19;4.30;92.90
1415;DHT22;702;49.466;11.086;2023-01-08T06:33:46;4.30;92.90
1415;DHT22;702;49.466;11.086;2023-01-08T06:36:15;4.30;93.00
1415;DHT22;702;49.466;11.086;2023-01-08T06:38:42;4.30;92.80
1415;DHT22;702;49.466;11.086;2023-01-08T06:41:09;4.30;92.60
1415;DHT22;702;49.466;11.086;2023-01-08T06:43:37;4.30;93.10
1415;DHT22;702;49.466;11.086;2023-01-08T06:46:05;4.40;92.40
1415;DHT22;702;49.466;11.086;2023-01-08T06:48:33;4.50;92.30
1415;DHT22;702;49.466;11.086;2023-01-08T06:51:01;4.60;91.90
1415;DHT22;702;49.466;11.086;2023-01-08T06:53:30;4.60;91.20
1415;DHT22;702;49.466;11.086;2023-01-08T06:55:58;4.70;91.00
1415;DHT22;702;49.466;11.086;2023-01-08T06:58:27;4.70;91.10
1415;DHT22;702;49.466;11.086;2023-01-08T07:00:55;4.70;90.90
1415;DHT22;702;49.466;11.086;2023-01-08T07:03:23;4.70;90.60
1415;DHT22;702;49.466;11.086;2023-01-08T07:05:50;4.70;90.70
1415;DHT22;702;49.466;11.086;2023-01-08T07:08:18;4.80;90.80
1415;DHT22;702;49.466;11.086;2023-01-08T07:10:47;4.80;90.50
1415;DHT22;702;49.466;11.086;2023-01-08T07:13:14;4.80;90.20
1415;DHT22;702;49.466;11.086;2023-01-08T07:15:42;4.90;90.40
1415;DHT22;702;49.466;11.086;2023-01-08T07:18:10;4.90;90.10
1415;DHT22;702;49.466;11.086;2023-01-08T07:20:38;4.90;89.60
1415;DHT22;702;49.466;11.086;2023-01-08T07:23:07;5.00;90.00
1415;DHT22;702;49.466;11.086;2023-01-08T07:25:35;5.00;89.10
1415;DHT22;702;49.466;11.086;2023-01-08T07:28:10;5.00;89.00
1415;DHT22;702;49.466;11.086;2023-01-08T07:30:39;5.00;89.40
1415;DHT22;702;49.466;11.086;2023-01-08T07:33:08;4.90;89.80
1415;DHT22;702;49.466;11.086;2023-01-08T07:35:35;4.90;89.40
1415;DHT22;702;49.466;11.086;2023-01-08T07:38:04;5.00;89.00
1415;DHT22;702;49.466;11.086;2023-01-08T07:40:31;5.00;89.80
1415;DHT22;702;49.466;11.086;2023-01-08T07:42:59;5.00;89.60
1415;DHT22;702;49.466;11.086;2023-01-08T07:45:30;5.00;89.20
1415;DHT22;702;49.466;11.086;2023-01-08T07:47:57;5.00;88.70
1415;DHT22;702;49.466;11.086;2023-01-08T07:50:25;5.00;88.80
1415;DHT22;702;49.466;11.086;2023-01-08T07:52:55;5.00;89.50
1415;DHT22;702;49.466;11.086;2023-01-08T07:55:23;5.00;89.50
1415;DHT22;702;49.466;11.086;2023-01-08T07:57:50;5.00;89.20
1415;DHT22;702;49.466;11.086;2023-01-08T08:00:18;5.00;88.70
1415;DHT22;702;49.466;11.086;2023-01-08T08:02:47;5.00;88.70
1415;DHT22;702;49.466;11.086;2023-01-08T08:05:14;5.00;89.30
1415;DHT22;702;49.466;11.086;2023-01-08T08:07:42;5.00;89.10
1415;DHT22;702;49.466;11.086;2023-01-08T08:10:09;5.00;89.30
1415;DHT22;702;49.466;11.086;2023-01-08T08:12:37;5.00;89.00
1415;DHT22;702;49.466;11.086;2023-01-08T08:15:05;5.10;88.80
1415;DHT22;702;49.466;11.086;2023-01-08T08:17:33;5.20;88.30
1415;DHT22;702;49.466;11.086;2023-01-08T08:20:02;5.30;88.00
1415;DHT22;702;49.466;11.086;2023-01-08T08:22:29;5.40;87.90
1415;DHT22;702;49.466;11.086;2023-01-08T08:24:56;5.50;86.90
1415;DHT22;702;49.466;11.086;2023-01-08T08:27:24;5.50;87.30
1415;DHT22;702;49.466;11.086;2023-01-08T08:29:51;5.60;86.90
1415;DHT22;702;49.466;11.086;2023-01-08T08:32:18;5.70;87.20
1415;DHT22;702;49.466;11.086;2023-01-08T08:34:45;5.90;86.40
1415;DHT22;702;49.466;11.086;2023-01-08T08:37:13;6.10;86.70
1415;DHT22;702;49.466;11.086;2023-01-08T08:39:41;6.10;85.00
1415;DHT22;702;49.466;11.086;2023-01-08T08:42:08;6.10;84.50
1415;DHT22;702;49.466;11.086;2023-01-08T08:44:35;6.00;84.80
1415;DHT22;702;49.466;11.086;2023-01-08T08:47:06;5.90;84.70
1415;DHT22;702;49.466;11.086;2023-01-08T08:49:33;6.00;85.00
1415;DHT22;702;49.466;11.086;2023-01-08T08:52:02;6.00;85.00
1415;DHT22;702;49.466;11.086;2023-01-08T08:54:31;6.00;85.00
1415;DHT22;702;49.466;11.086;2023-01-08T08:56:58;6.10;84.70
1415;DHT22;702;49.466;11.086;2023-01-08T08:59:25;6.10;84.50
1415;DHT22;702;49.466;11.086;2023-01-08T09:01:52;6.20;84.60
1415;DHT22;702;49.466;11.086;2023-01-08T09:04:19;6.20;84.30
1415;DHT22;702;49.466;11.086;2023-01-08T09:06:46;6.30;84.10
1415;DHT22;702;49.466;11.086;2023-01-08T09:09:13;6.40;84.00
1415;DHT22;702;49.466;11.086;2023-01-08T09:11:42;6.40;83.70
1415;DHT22;702;49.466;11.086;2023-01-08T09:14:10;6.40;83.80
1415;DHT22;702;49.466;11.086;2023-01-08T09:16:37;6.50;84.20
1415;DHT22;702;49.466;11.086;2023-01-08T09:19:04;6.70;83.70
1415;DHT22;702;49.466;11.086;2023-01-08T09:21:32;6.70;83.30
1415;DHT22;702;49.466;11.086;2023-01-08T09:23:59;6.80;83.10
1415;DHT22;702;49.466;11.086;2023-01-08T09:26:26;6.90;83.10
1415;DHT22;702;49.466;11.086;2023-01-08T09:28:57;7.10;82.60
1415;DHT22;702;49.466;11.086;2023-01-08T09:31:25;7.10;82.30
1415;DHT22;702;49.466;11.086;2023-01-08T09:33:52;7.20;82.00
1415;DHT22;702;49.466;11.086;2023-01-08T09:36:20;7.30;81.80
1415;DHT22;702;49.466;11.086;2023-01-08T09:38:47;7.20;81.90
1415;DHT22;702;49.466;11.086;2023-01-08T09:41:18;7.30;82.10
1415;DHT22;702;49.466;11.086;2023-01-08T09:43:50;7.30;82.00
1415;DHT22;702;49.466;11.086;2023-01-08T09:46:22;7.30;81.80
1415;DHT22;702;49.466;11.086;2023-01-08T09:48:51;7.50;81.80
1415;DHT22;702;49.466;11.086;2023-01-08T09:51:20;7.60;81.50
1415;DHT22;702;49.466;11.086;2023-01-08T09:53:53;7.70;81.40
1415;DHT22;702;49.466;11.086;2023-01-08T09:56:22;7.80;81.50
1415;DHT22;702;49.466;11.086;2023-01-08T09:58:50;8.00;81.20
1415;DHT22;702;49.466;11.086;2023-01-08T10:01:22;8.10;80.80
1415;DHT22;702;49.466;11.086;2023-01-08T10:03:56;8.20;80.40
1415;DHT22;702;49.466;11.086;2023-01-08T10:06:26;8.20;80.10
1415;DHT22;702;49.466;11.086;2023-01-08T10:08:53;8.20;80.00
1415;DHT22;702;49.466;11.086;2023-01-08T10:11:21;8.20;80.40
1415;DHT22;702;49.466;11.086;2023-01-08T10:13:51;8.20;80.20
1415;DHT22;702;49.466;11.086;2023-01-08T10:16:26;8.20;80.30
1415;DHT22;702;49.466;11.086;2023-01-08T10:18:55;8.20;80.40
1415;DHT22;702;49.466;11.086;2023-01-08T10:21:26;8.10;80.80
1415;DHT22;702;49.466;11.086;2023-01-08T10:23:55;8.10;81.00
1415;DHT22;702;49.466;11.086;2023-01-08T10:26:27;8.10;81.50
1415;DHT22;702;49.466;11.086;2023-01-08T10:29:11;8.00;81.80
1415;DHT22;702;49.466;11.086;2023-01-08T10:31:46;8.00;82.20
1415;DHT22;702;49.466;11.086;2023-01-08T10:34:27;8.00;82.60
1415;DHT22;702;49.466;11.086;2023-01-08T10:36:58;8.10;82.60
1415;DHT22;702;49.466;11.086;2023-01-08T10:39:27;8.10;82.60
1415;DHT22;702;49.466;11.086;2023-01-08T10:42:01;8.10;83.00
1415;DHT22;702;49.466;11.086;2023-01-08T10:44:31;8.00;83.30
1415;DHT22;702;49.466;11.086;2023-01-08T10:47:03;8.00;83.70
1415;DHT22;702;49.466;11.086;2023-01-08T10:49:34;7.80;83.90
1415;DHT22;702;49.466;11.086;2023-01-08T10:52:04;7.60;84.50
1415;DHT22;702;49.466;11.086;2023-01-08T10:54:34;7.70;85.30
1415;DHT22;702;49.466;11.086;2023-01-08T10:57:19;7.70;85.20
1415;DHT22;702;49.466;11.086;2023-01-08T10:59:47;7.60;85.70
1415;DHT22;702;49.466;11.086;2023-01-08T11:02:27;7.70;85.70
1415;DHT22;702;49.466;11.086;2023-01-08T11:04:58;7.70;86.10
1415;DHT22;702;49.466;11.086;2023-01-08T11:07:26;7.60;87.00
1415;DHT22;702;49.466;11.086;2023-01-08T11:09:54;7.70;86.80
1415;DHT22;702;49.466;11.086;2023-01-08T11:12:32;7.70;87.50
1415;DHT22;702;49.466;11.086;2023-01-08T11:15:02;7.60;89.30
1415;DHT22;702;49.466;11.086;2023-01-08T11:17:31;7.70;89.20
1415;DHT22;702;49.466;11.086;2023-01-08T11:20:07;7.60;89.00
1415;DHT22;702;49.466;11.086;2023-01-08T11:22:36;7.70;89.30
1415;DHT22;702;49.466;11.086;2023-01-08T11:25:07;7.60;90.00
1415;DHT22;702;49.466;11.086;2023-01-08T11:27:41;7.60;90.30
1415;DHT22;702;49.466;11.086;2023-01-08T11:30:12;7.50;90.40
1415;DHT22;702;49.466;11.086;2023-01-08T11:32:46;7.60;90.70
1415;DHT22;702;49.466;11.086;2023-01-08T11:35:19;7.70;90.90
1415;DHT22;702;49.466;11.086;2023-01-08T11:37:50;7.60;91.30
1415;DHT22;702;49.466;11.086;2023-01-08T11:40:28;7.70;91.90
1415;DHT22;702;49.466;11.086;2023-01-08T11:43:24;7.70;91.50
1415;DHT22;702;49.466;11.086;2023-01-08T11:46:05;7.50;92.40
1415;DHT22;702;49.466;11.086;2023-01-08T11:48:50;7.40;93.00
1415;DHT22;702;49.466;11.086;2023-01-08T11:51:45;7.30;93.10
1415;DHT22;702;49.466;11.086;2023-01-08T11:54:32;7.20;93.70
1415;DHT22;702;49.466;11.086;2023-01-08T11:57:16;7.30;94.30
1415;DHT22;702;49.466;11.086;2023-01-08T12:00:00;7.30;94.10
1415;DHT22;702;49.466;11.086;2023-01-08T12:02:49;7.40;94.00
1415;DHT22;702;49.466;11.086;2023-01-08T12:05:24;7.30;94.10
1415;DHT22;702;49.466;11.086;2023-01-08T12:08:00;7.20;94.80
1415;DHT22;702;49.466;11.086;2023-01-08T12:10:34;7.20;95.20
1415;DHT22;702;49.466;11.086;2023-01-08T12:13:23;7.20;95.60
1415;DHT22;702;49.466;11.086;2023-01-08T12:16:10;7.20;96.20
1415;DHT22;702;49.466;11.086;2023-01-08T12:19:04;7.30;96.10
1415;DHT22;702;49.466;11.086;2023-01-08T12:21:54;7.20;96.10
1415;DHT22;702;49.466;11.086;2023-01-08T12:24:45;7.30;95.90
1415;DHT22;702;49.466;11.086;2023-01-08T12:27:31;7.30;95.60
1415;DHT22;702;49.466;11.086;2023-01-08T12:30:14;7.30;95.80
1415;DHT22;702;49.466;11.086;2023-01-08T12:32:46;7.40;95.90
1415;DHT22;702;49.466;11.086;2023-01-08T12:35:19;7.50;96.00
1415;DHT22;702;49.466;11.086;2023-01-08T12:37:55;7.50;95.50
1415;DHT22;702;49.466;11.086;2023-01-08T12:40:29;7.60;94.80
1415;DHT22;702;49.466;11.086;2023-01-08T12:43:02;7.80;94.00
1415;DHT22;702;49.466;11.086;2023-01-08T12:45:36;7.70;93.90
1415;DHT22;702;49.466;11.086;2023-01-08T12:48:09;7.80;93.60
1415;DHT22;702;49.466;11.086;2023-01-08T12:50:46;7.80;93.60
1415;DHT22;702;49.466;11.086;2023-01-08T12:53:26;7.90;93.60
1415;DHT22;702;49.466;11.086;2023-01-08T12:56:06;7.90;93.20
1415;DHT22;702;49.466;11.086;2023-01-08T12:58:48;8.00;92.80
1415;DHT22;702;49.466;11.086;2023-01-08T13:01:29;8.00;92.60
1415;DHT22;702;49.466;11.086;2023-01-08T13:04:00;8.00;93.00
1415;DHT22;702;49.466;11.086;2023-01-08T13:06:29;8.20;92.70
1415;DHT22;702;49.466;11.086;2023-01-08T13:08:58;8.20;92.30
1415;DHT22;702;49.466;11.086;2023-01-08T13:11:29;8.10;92.80
1415;DHT22;702;49.466;11.086;2023-01-08T13:14:02;8.10;92.80
1415;DHT22;702;49.466;11.086;2023-01-08T13:16:34;8.00;93.00
1415;DHT22;702;49.466;11.086;2023-01-08T13:19:04;8.10;93.00
1415;DHT22;702;49.466;11.086;2023-01-08T13:21:35;8.00;93.00
1415;DHT22;702;49.466;11.086;2023-01-08T13:24:20;8.00;93.30
1415;DHT22;702;49.466;11.086;2023-01-08T13:26:51;8.00;93.40
1415;DHT22;702;49.466;11.086;2023-01-08T13:29:25;8.10;92.60
1415;DHT22;702;49.466;11.086;2023-01-08T13:32:02;8.00;93.00
1415;DHT22;702;49.466;11.086;2023-01-08T13:34:36;8.10;93.30
1415;DHT22;702;49.466;11.086;2023-01-08T13:37:07;8.20;92.90
1415;DHT22;702;49.466;11.086;2023-01-08T13:39:36;8.20;92.60
1415;DHT22;702;49.466;11.086;2023-01-08T13:42:20;8.20;92.90
1415;DHT22;702;49.466;11.086;2023-01-08T13:44:49;8.20;92.40
1415;DHT22;702;49.466;11.086;2023-01-08T13:47:21;8.30;92.20
1415;DHT22;702;49.466;11.086;2023-01-08T13:49:53;8.30;91.60
1415;DHT22;702;49.466;11.086;2023-01-08T13:52:34;8.20;91.80
1415;DHT22;702;49.466;11.086;2023-01-08T13:55:13;8.20;92.40
1415;DHT22;702;49.466;11.086;2023-01-08T13:57:44;8.20;92.20
1415;DHT22;702;49.466;11.086;2023-01-08T14:00:20;8.20;91.90
1415;DHT22;702;49.466;11.086;2023-01-08T14:02:50;8.20;92.20
1415;DHT22;702;49.466;11.086;2023-01-08T14:05:24;8.20;92.00
1415;DHT22;702;49.466;11.086;2023-01-08T14:07:52;8.20;92.20
1415;DHT22;702;49.466;11.086;2023-01-08T14:10:22;8.20;92.10
1415;DHT22;702;49.466;11.086;2023-01-08T14:12:50;8.40;91.50
1415;DHT22;702;49.466;11.086;2023-01-08T14:15:21;8.30;91.70
1415;DHT22;702;49.466;11.086;2023-01-08T14:17:51;8.40;91.20
1415;DHT22;702;49.466;11.086;2023-01-08T14:20:25;8.20;91.50
1415;DHT22;702;49.466;11.086;2023-01-08T14:22:56;8.10;92.10
1415;DHT22;702;49.466;11.086;2023-01-08T14:25:25;8.00;92.30
1415;DHT22;702;49.466;11.086;2023-01-08T14:28:00;8.00;92.50
1415;DHT22;702;49.466;11.086;2023-01-08T14:30:29;7.90;92.30
1415;DHT22;702;49.466;11.086;2023-01-08T14:32:57;7.90;92.60
1415;DHT22;702;49.466;11.086;2023-01-08T14:35:31;7.90;92.30
1415;DHT22;702;49.466;11.086;2023-01-08T14:38:00;7.90;92.50
1415;DHT22;702;49.466;11.086;2023-01-08T14:40:32;7.80;92.80
1415;DHT22;702;49.466;11.086;2023-01-08T14:43:06;7.80;93.10
1415;DHT22;702;49.466;11.086;2023-01-08T14:45:36;7.70;93.30
1415;DHT22;702;49.466;11.086;2023-01-08T14:48:09;7.70;92.90
1415;DHT22;702;49.466;11.086;2023-01-08T14:50:40;7.70;93.20
1415;DHT22;702;49.466;11.086;2023-01-08T14:53:16;7.70;93.40
1415;DHT22;702;49.466;11.086;2023-01-08T14:55:49;7.60;93.40
1415;DHT22;702;49.466;11.086;2023-01-08T14:58:21;7.60;93.30
1415;DHT22;702;49.466;11.086;2023-01-08T15:00:51;7.60;93.80
1415;DHT22;702;49.466;11.086;2023-01-08T15:03:31;7.60;93.70
1415;DHT22;702;49.466;11.086;2023-01-08T15:06:00;7.60;93.60
1415;DHT22;702;49.466;11.086;2023-01-08T15:08:33;7.60;93.50
1415;DHT22;702;49.466;11.086;2023-01-08T15:11:04;7.60;93.90
1415;DHT22;702;49.466;11.086;2023-01-08T15:13:35;7.60;93.90
1415;DHT22;702;49.466;11.086;2023-01-08T15:16:07;7.50;94.10
1415;DHT22;702;49.466;11.086;2023-01-08T15:18:47;7.60;94.10
1415;DHT22;702;49.466;11.086;2023-01-08T15:21:16;7.50;94.20
1415;DHT22;702;49.466;11.086;2023-01-08T15:23:47;7.50;94.30
1415;DHT22;702;49.466;11.086;2023-01-08T15:26:17;7.50;94.00
1415;DHT22;702;49.466;11.086;2023-01-08T15:28:50;7.40;94.50
1415;DHT22;702;49.466;11.086;2023-01-08T15:31:26;7.40;95.20
1415;DHT22;702;49.466;11.086;2023-01-08T15:33:54;7.40;94.70
1415;DHT22;702;49.466;11.086;2023-01-08T15:36:22;7.40;94.30
1415;DHT22;702;49.466;11.086;2023-01-08T15:38:50;7.40;94.20
1415;DHT22;702;49.466;11.086;2023-01-08T15:41:21;7.40;94.20
1415;DHT22;702;49.466;11.086;2023-01-08T15:44:07;7.30;94.60
1415;DHT22;702;49.466;11.086;2023-01-08T15:46:35;7.30;94.90
1415;DHT22;702;49.466;11.086;2023-01-08T15:49:02;7.30;94.60
1415;DHT22;702;49.466;11.086;2023-01-08T15:51:33;7.30;94.80
1415;DHT22;702;49.466;11.086;2023-01-08T15:54:01;7.30;94.70
1415;DHT22;702;49.466;11.086;2023-01-08T15:56:29;7.30;94.80
1415;DHT22;702;49.466;11.086;2023-01-08T15:58:56;7.20;95.10
1415;DHT22;702;49.466;11.086;2023-01-08T16:01:25;7.20;95.50
1415;DHT22;702;49.466;11.086;2023-01-08T16:03:53;7.30;94.90
1415;DHT22;702;49.466;11.086;2023-01-08T16:06:20;7.20;95.00
1415;DHT22;702;49.466;11.086;2023-01-08T16:08:47;7.30;95.10
1415;DHT22;702;49.466;11.086;2023-01-08T16:11:15;7.30;94.70
1415;DHT22;702;49.466;11.086;2023-01-08T16:13:45;7.30;94.90
1415;DHT22;702;49.466;11.086;2023-01-08T16:16:14;7.30;95.10
1415;DHT22;702;49.466;11.086;2023-01-08T16:18:42;7.20;94.80
1415;DHT22;702;49.466;11.086;2023-01-08T16:21:10;7.20;94.70
1415;DHT22;702;49.466;11.086;2023-01-08T16:23:38;7.20;95.10
1415;DHT22;702;49.466;11.086;2023-01-08T16:26:07;7.20;95.40
1415;DHT22;702;49.466;11.086;2023-01-08T16:28:35;7.10;94.90
1415;DHT22;702;49.466;11.086;2023-01-08T16:31:04;7.10;94.90
1415;DHT22;702;49.466;11.086;2023-01-08T16:33:32;7.00;94.80
1415;DHT22;702;49.466;11.086;2023-01-08T16:36:01;7.00;95.00
1415;DHT22;702;49.466;11.086;2023-01-08T16:38:29;7.00;95.20